createdAt,value
2023-04-03T00:00:53.829Z,99.90
2023-04-03T00:05:58.390Z,99.90
2023-04-03T00:11:02.946Z,99.90
2023-04-03T00:16:09.186Z,99.90
2023-04-03T00:21:15.053Z,99.90
2023-04-03T00:26:19.199Z,99.90
2023-04-03T00:31:25.038Z,99.90
2023-04-03T00:36:30.310Z,99.90
2023-04-03T00:41:34.138Z,99.90
2023-04-03T00:46:39.245Z,99.90
2023-04-03T00:51:43.506Z,99.90
2023-04-03T00:56:47.882Z,99.90
2023-04-03T01:01:55.984Z,99.90
2023-04-03T01:07:02.402Z,99.90
2023-04-03T01:12:17.801Z,99.90
2023-04-03T01:17:31.355Z,99.90
2023-04-03T01:22:39.814Z,99.90
2023-04-03T01:27:44.007Z,99.90
2023-04-03T01:32:49.670Z,99.90
2023-04-03T01:37:54.791Z,99.90
2023-04-03T01:42:58.815Z,99.90
2023-04-03T01:48:04.743Z,99.90
2023-04-03T01:53:08.981Z,99.90
2023-04-03T01:58:13.069Z,99.90
2023-04-03T02:03:18.802Z,99.90
2023-04-03T02:08:23.157Z,99.90
2023-04-03T02:13:26.875Z,99.90
2023-04-03T02:18:31.851Z,99.90
2023-04-03T02:23:37.980Z,99.90
2023-04-03T02:28:42.758Z,99.90
2023-04-03T02:33:47.869Z,99.90
2023-04-03T02:38:53.093Z,99.90
2023-04-03T02:43:56.733Z,99.90
2023-04-03T02:49:01.930Z,99.90
2023-04-03T02:54:06.520Z,99.90
2023-04-03T02:59:13.158Z,99.90
2023-04-03T03:04:20.089Z,99.90
2023-04-03T03:09:24.626Z,99.90
2023-04-03T03:14:28.330Z,99.90
2023-04-03T03:19:33.600Z,99.90
2023-04-03T03:24:37.701Z,99.90
2023-04-03T03:29:41.524Z,99.90
2023-04-03T03:34:46.718Z,99.90
2023-04-03T03:39:50.903Z,99.90
2023-04-03T03:44:55.455Z,99.90
2023-04-03T03:50:01.627Z,99.90
2023-04-03T03:55:07.416Z,99.90
2023-04-03T04:00:14.450Z,99.90
2023-04-03T04:05:23.098Z,99.90
2023-04-03T04:10:27.301Z,99.90
2023-04-03T04:15:32.201Z,99.90
2023-04-03T04:20:38.369Z,99.90
2023-04-03T04:25:42.085Z,99.90
2023-04-03T04:30:46.659Z,99.90
2023-04-03T04:35:54.038Z,99.90
2023-04-03T04:40:59.012Z,99.90
2023-04-03T04:46:05.660Z,99.90
2023-04-03T04:51:15.616Z,99.90
2023-04-03T04:56:19.713Z,99.90
2023-04-03T05:01:24.661Z,99.90
2023-04-03T05:06:36.780Z,99.90
2023-04-03T05:11:45.636Z,99.90
2023-04-03T05:16:55.034Z,99.90
2023-04-03T05:22:03.891Z,99.90
2023-04-03T05:27:08.158Z,99.90
2023-04-03T05:32:17.611Z,99.90
2023-04-03T05:37:25.742Z,99.90
2023-04-03T05:42:31.038Z,99.90
2023-04-03T05:47:35.394Z,99.90
2023-04-03T05:52:45.459Z,99.90
2023-04-03T05:57:51.030Z,99.90
2023-04-03T06:02:54.718Z,99.90
2023-04-03T06:08:02.474Z,99.90
2023-04-03T06:13:09.040Z,99.90
2023-04-03T06:18:14.372Z,99.90
2023-04-03T06:23:20.206Z,99.90
2023-04-03T06:28:26.676Z,99.90
2023-04-03T06:33:32.050Z,99.90
2023-04-03T06:38:38.103Z,98.30
2023-04-03T06:43:42.859Z,91.60
2023-04-03T06:48:47.939Z,91.10
2023-04-03T06:53:55.555Z,89.10
2023-04-03T06:58:59.688Z,87.60
2023-04-03T07:04:04.468Z,82.30
2023-04-03T07:09:10.073Z,79.40
2023-04-03T07:14:13.834Z,75.40
2023-04-03T07:19:19.246Z,78.50
2023-04-03T07:24:24.225Z,77.80
2023-04-03T07:29:27.712Z,74.30
2023-04-03T07:34:31.798Z,73.90
2023-04-03T07:39:36.871Z,70.10
2023-04-03T07:44:40.419Z,73.80
2023-04-03T07:49:44.822Z,74.10
2023-04-03T07:54:49.740Z,74.90
2023-04-03T07:59:53.212Z,74.60
2023-04-03T08:04:56.891Z,77.70
2023-04-03T08:10:01.734Z,82.30
2023-04-03T08:15:06.151Z,83.20
2023-04-03T08:20:12.241Z,83.90
2023-04-03T08:25:18.482Z,83.60
2023-04-03T08:30:22.560Z,84.50
2023-04-03T08:35:26.062Z,84.80
2023-04-03T08:40:31.434Z,83.80
2023-04-03T08:45:44.974Z,81.60
2023-04-03T08:50:52.967Z,77.00
2023-04-03T08:55:59.524Z,77.50
2023-04-03T09:01:06.194Z,76.00
2023-04-03T09:06:14.876Z,81.90
2023-04-03T09:11:27.773Z,79.90
2023-04-03T09:16:50.272Z,83.40
2023-04-03T09:21:54.550Z,83.00
2023-04-03T09:27:04.963Z,84.70
2023-04-03T09:32:22.358Z,79.50
2023-04-03T09:37:39.749Z,76.20
2023-04-03T09:42:48.829Z,74.50
2023-04-03T09:48:10.393Z,76.40
2023-04-03T09:53:30.021Z,73.20
2023-04-03T09:58:49.566Z,72.90
2023-04-03T10:04:08.280Z,68.80
2023-04-03T10:09:21.524Z,60.20
2023-04-03T10:14:27.356Z,66.80
2023-04-03T10:19:37.864Z,68.10
2023-04-03T10:24:54.045Z,67.60
2023-04-03T10:30:09.950Z,69.90
2023-04-03T10:35:23.080Z,69.20
2023-04-03T10:40:34.529Z,68.50
2023-04-03T10:45:54.975Z,67.90
2023-04-03T10:51:07.411Z,66.00
2023-04-03T10:56:16.925Z,66.40
2023-04-03T11:01:25.963Z,65.10
2023-04-03T11:06:37.859Z,68.30
2023-04-03T11:11:43.864Z,69.70
2023-04-03T11:16:55.247Z,65.60
2023-04-03T11:22:05.756Z,69.20
2023-04-03T11:27:17.753Z,66.40
2023-04-03T11:32:55.704Z,67.10
2023-04-03T11:38:01.700Z,67.50
2023-04-03T11:43:08.801Z,70.20
2023-04-03T11:48:45.697Z,70.60
2023-04-03T11:53:50.038Z,72.50
2023-04-03T11:59:25.320Z,71.20
2023-04-03T12:04:31.786Z,69.60
2023-04-03T12:09:57.321Z,72.20
2023-04-03T12:15:24.417Z,71.20
2023-04-03T12:20:53.139Z,71.50
2023-04-03T12:26:06.344Z,75.00
2023-04-03T12:31:12.570Z,73.40
2023-04-03T12:36:27.890Z,75.20
2023-04-03T12:41:42.101Z,73.50
2023-04-03T12:46:48.927Z,75.50
2023-04-03T12:51:54.565Z,72.20
2023-04-03T12:57:11.748Z,75.60
2023-04-03T13:02:24.507Z,73.90
2023-04-03T13:07:34.274Z,69.80
2023-04-03T13:12:48.832Z,71.80
2023-04-03T13:17:54.476Z,73.50
2023-04-03T13:23:03.564Z,72.90
2023-04-03T13:28:13.882Z,71.90
2023-04-03T13:33:24.268Z,73.30
2023-04-03T13:38:35.153Z,74.50
2023-04-03T13:43:39.633Z,74.40
2023-04-03T13:48:46.569Z,77.00
2023-04-03T13:53:53.905Z,76.20
2023-04-03T13:59:04.311Z,81.20
2023-04-03T14:04:18.350Z,76.50
2023-04-03T14:09:25.664Z,76.20
2023-04-03T14:14:33.643Z,76.90
2023-04-03T14:19:37.526Z,76.90
2023-04-03T14:24:42.360Z,79.30
2023-04-03T14:29:46.616Z,79.10
2023-04-03T14:34:52.055Z,79.30
2023-04-03T14:39:58.292Z,82.30
2023-04-03T14:45:04.305Z,78.40
2023-04-03T14:50:14.191Z,77.20
2023-04-03T14:55:21.355Z,75.30
2023-04-03T15:00:25.393Z,79.30
2023-04-03T15:05:29.703Z,76.80
2023-04-03T15:10:35.474Z,81.00
2023-04-03T15:15:39.397Z,80.40
2023-04-03T15:20:44.216Z,81.10
2023-04-03T15:25:50.282Z,82.40
2023-04-03T15:30:54.127Z,82.90
2023-04-03T15:36:06.613Z,84.60
2023-04-03T15:41:13.652Z,85.40
2023-04-03T15:46:17.817Z,88.50
2023-04-03T15:51:21.525Z,89.70
2023-04-03T15:56:26.906Z,90.00
2023-04-03T16:01:30.681Z,90.00
2023-04-03T16:06:35.208Z,90.30
2023-04-03T16:11:41.008Z,89.40
2023-04-03T16:16:45.184Z,89.10
2023-04-03T16:21:48.782Z,90.80
2023-04-03T16:26:54.500Z,90.30
2023-04-03T16:31:59.774Z,89.70
2023-04-03T16:37:03.484Z,89.60
2023-04-03T16:42:10.208Z,89.20
2023-04-03T16:47:15.144Z,90.70
2023-04-03T16:52:18.769Z,91.30
2023-04-03T16:57:25.942Z,91.60
2023-04-03T17:02:30.397Z,92.00
2023-04-03T17:07:34.124Z,92.30
2023-04-03T17:12:39.192Z,93.20
2023-04-03T17:17:43.000Z,93.80
2023-04-03T17:22:47.253Z,93.60
2023-04-03T17:27:52.659Z,93.70
2023-04-03T17:32:56.437Z,94.00
2023-04-03T17:37:59.874Z,94.90
2023-04-03T17:43:04.854Z,95.00
2023-04-03T17:48:08.588Z,95.60
2023-04-03T17:53:12.224Z,96.20
2023-04-03T17:58:17.638Z,96.60
2023-04-03T18:03:21.292Z,96.90
2023-04-03T18:08:24.961Z,97.20
2023-04-03T18:13:29.997Z,97.30
2023-04-03T18:18:33.981Z,97.40
2023-04-03T18:23:40.058Z,97.60
2023-04-03T18:28:48.761Z,98.80
2023-04-03T18:33:54.859Z,99.60
2023-04-03T18:38:58.407Z,99.90
2023-04-03T18:44:06.935Z,99.90
2023-04-03T18:49:12.695Z,99.90
2023-04-03T18:54:20.505Z,99.90
2023-04-03T18:59:25.904Z,99.90
2023-04-03T19:04:30.495Z,99.90
2023-04-03T19:09:34.477Z,99.90
2023-04-03T19:14:39.554Z,99.90
2023-04-03T19:19:43.083Z,99.90
2023-04-03T19:24:46.629Z,99.90
2023-04-03T19:29:51.878Z,99.90
2023-04-03T19:34:57.094Z,99.90
2023-04-03T19:40:00.750Z,99.90
2023-04-03T19:45:08.121Z,99.90
2023-04-03T19:50:11.973Z,99.90
2023-04-03T19:55:16.088Z,99.90
2023-04-03T20:00:21.662Z,99.90
2023-04-03T20:05:25.876Z,99.90
2023-04-03T20:10:29.488Z,99.90
2023-04-03T20:15:40.541Z,99.90
2023-04-03T20:20:44.635Z,99.90
2023-04-03T20:25:58.014Z,99.90
2023-04-03T20:31:13.702Z,99.90
2023-04-03T20:36:20.058Z,99.90
2023-04-03T20:41:23.871Z,99.90
2023-04-03T20:46:42.124Z,99.90
2023-04-03T20:51:53.012Z,99.90
2023-04-03T20:56:56.541Z,99.90
2023-04-03T21:02:01.710Z,99.90
2023-04-03T21:07:43.492Z,99.90
2023-04-03T21:13:25.538Z,99.90
2023-04-03T21:19:06.126Z,99.90
2023-04-03T21:24:11.173Z,99.90
2023-04-03T21:29:14.593Z,99.90
2023-04-03T21:34:20.941Z,99.90
2023-04-03T21:39:25.381Z,99.90
2023-04-03T21:44:28.920Z,99.90
2023-04-03T21:49:34.357Z,99.90
2023-04-03T21:54:38.447Z,99.90
2023-04-03T21:59:42.477Z,99.90
2023-04-03T22:04:47.702Z,99.90
2023-04-03T22:09:51.391Z,99.90
2023-04-03T22:14:55.994Z,99.90
2023-04-03T22:20:01.028Z,99.90
2023-04-03T22:25:06.608Z,99.90
2023-04-03T22:30:13.024Z,99.90
2023-04-03T22:35:20.065Z,99.90
2023-04-03T22:40:23.361Z,99.90
2023-04-03T22:45:27.150Z,99.90
2023-04-03T22:50:34.058Z,99.90
2023-04-03T22:55:38.299Z,99.90
2023-04-03T23:00:42.076Z,99.90
2023-04-03T23:05:47.474Z,99.90
2023-04-03T23:10:54.317Z,99.90
2023-04-03T23:15:59.497Z,99.90
2023-04-03T23:21:05.136Z,99.90
2023-04-03T23:26:09.709Z,99.90
2023-04-03T23:31:13.792Z,99.90
2023-04-03T23:36:18.696Z,99.90
2023-04-03T23:41:22.488Z,99.90
2023-04-03T23:46:26.895Z,99.90
2023-04-03T23:51:31.694Z,99.90
2023-04-03T23:56:35.063Z,99.90
